Time;durP1;ratioP1;P1;durP2;ratioP2;P2;SDS_P1;SDS_P2;PMS_P1;PMS_P2;Temp;Humidity;BMP_temperature;BMP_pressure;BME280_temperature;BME280_humidity;BME280_pressure;Samples;Min_cycle;Max_cycle;Signal;HPM_P1;HPM_P2
2024/01/12 00:01:35;;;;;;;44.57;16.07;;;;;;;-145.69;61.09;52476.06;5093992;28;20201;-81
2024/01/12 00:04:03;;;;;;;48.47;16.83;;;;;;;-145.69;61.11;52450.31;5093871;28;20236;-82
2024/01/12 00:06:29;;;;;;;49.70;18.03;;;;;;;-145.69;61.47;52487.97;5093977;28;20232;-81
2024/01/12 00:08:56;;;;;;;40.87;15.97;;;;;;;-145.69;61.11;52460.22;5093964;28;20315;-81
2024/01/12 00:11:22;;;;;;;40.23;15.27;;;;;;;-145.69;61.96;52434.47;5093824;28;20205;-81
2024/01/12 00:13:49;;;;;;;38.50;14.40;;;;;;;-145.69;61.30;52456.28;5093823;28;20198;-81
2024/01/12 00:16:16;;;;;;;42.17;13.70;;;;;;;-145.69;60.60;52450.31;5093598;28;20572;-82
2024/01/12 00:18:42;;;;;;;34.73;13.00;;;;;;;-145.69;61.41;52446.38;5093194;28;20205;-81
2024/01/12 00:21:10;;;;;;;35.37;12.90;;;;;;;-145.69;61.71;52428.53;5093311;28;20198;-81
2024/01/12 00:23:36;;;;;;;31.57;12.03;;;;;;;-145.69;61.36;52484.00;5093637;28;20194;-81
2024/01/12 00:26:03;;;;;;;32.20;11.93;;;;;;;-145.69;61.00;52450.31;5093515;28;20229;-81
2024/01/12 00:28:30;;;;;;;28.63;11.13;;;;;;;-145.69;61.54;52462.22;5093843;28;20564;-81
2024/01/12 00:30:57;;;;;;;35.00;10.70;;;;;;;-145.69;61.42;52452.31;5093610;28;20240;-82
2024/01/12 00:33:24;;;;;;;26.70;10.07;;;;;;;-145.69;60.69;52418.63;5093436;28;20266;-81
2024/01/12 00:35:50;;;;;;;29.40;10.50;;;;;;;-145.69;60.78;52442.41;5092666;28;20657;-81
2024/01/12 00:38:18;;;;;;;26.47;10.30;;;;;;;-145.69;61.09;52416.66;5093039;28;20202;-81
2024/01/12 00:40:45;;;;;;;25.90;9.87;;;;;;;-145.69;61.09;52420.63;5093258;28;20198;-80
2024/01/12 00:43:12;;;;;;;23.43;9.13;;;;;;;-145.69;60.85;52438.44;5093121;28;20652;-81
2024/01/12 00:45:38;;;;;;;22.93;8.80;;;;;;;-145.69;61.39;52446.38;5093114;28;20232;-80
2024/01/12 00:48:06;;;;;;;25.87;8.73;;;;;;;-145.69;61.87;52454.28;5093228;28;20209;-81
2024/01/12 00:50:33;;;;;;;21.80;8.73;;;;;;;-145.69;61.42;52444.38;5093258;28;20201;-81
2024/01/12 00:52:59;;;;;;;26.70;9.53;;;;;;;-145.69;61.09;52444.38;5092900;28;20202;-81
2024/01/12 00:55:27;;;;;;;25.57;9.00;;;;;;;-145.69;61.14;52432.50;5092975;28;20525;-81
2024/01/12 00:57:55;;;;;;;25.10;8.37;;;;;;;-145.69;60.72;52446.38;5092712;28;20199;-81
2024/01/12 01:00:21;;;;;;;24.07;8.83;;;;;;;-145.69;61.38;52452.31;5092951;28;20238;-81
2024/01/12 01:02:48;;;;;;;21.30;8.20;;;;;;;-145.69;60.73;52442.41;5093177;28;20213;-81
2024/01/12 01:05:14;;;;;;;27.10;9.43;;;;;;;-145.69;62.06;52428.53;5092348;28;20204;-81
2024/01/12 01:07:41;;;;;;;25.67;9.63;;;;;;;-145.69;61.45;52446.38;5092410;28;20577;-81
2024/01/12 01:10:07;;;;;;;30.43;10.50;;;;;;;-145.69;61.04;52444.38;5092759;28;20434;-81
2024/01/12 01:12:35;;;;;;;25.37;9.67;;;;;;;-145.69;61.62;52434.47;5092583;28;20289;-81
2024/01/12 01:15:04;;;;;;;26.73;10.33;;;;;;;-145.69;61.24;52446.38;5091461;28;20202;-81
2024/01/12 01:17:31;;;;;;;29.37;9.90;;;;;;;-145.69;61.35;52454.28;5092652;28;20297;-81
2024/01/12 01:19:58;;;;;;;29.33;10.90;;;;;;;-145.69;61.42;52438.44;5092484;28;20243;-81
2024/01/12 01:22:24;;;;;;;27.40;10.03;;;;;;;-145.69;60.81;52444.38;5093125;28;20263;-82
2024/01/12 01:24:51;;;;;;;31.17;10.23;;;;;;;-145.69;60.84;52430.53;5092520;28;20209;-82
2024/01/12 01:27:17;;;;;;;21.50;9.07;;;;;;;-145.69;61.47;52482.00;5076002;28;20719;-81
2024/01/12 01:29:45;;;;;;;25.87;9.53;;;;;;;-145.69;60.81;52434.47;5091771;28;20668;-81
2024/01/12 01:32:12;;;;;;;20.73;8.03;;;;;;;-145.69;60.79;52440.44;5092798;28;20209;-81
2024/01/12 01:34:38;;;;;;;27.73;7.97;;;;;;;-145.69;60.84;52499.84;5092656;28;20645;-81
2024/01/12 01:37:05;;;;;;;24.80;7.93;;;;;;;-145.69;60.60;52434.47;5092857;28;20202;-82
2024/01/12 01:39:31;;;;;;;19.50;8.27;;;;;;;-145.69;61.61;52448.34;5092468;28;20669;-81
2024/01/12 01:41:58;;;;;;;22.00;8.87;;;;;;;-145.69;61.56;52444.38;5092373;28;20194;-81
2024/01/12 01:44:25;;;;;;;22.23;8.57;;;;;;;-145.69;60.84;52448.34;5092595;28;20201;-81
2024/01/12 01:46:53;;;;;;;19.27;8.03;;;;;;;-145.69;60.90;52466.16;5092213;28;20226;-81
2024/01/12 01:49:21;;;;;;;26.83;9.67;;;;;;;-145.69;61.56;52444.38;5092571;28;20209;-82
2024/01/12 01:51:47;;;;;;;25.20;9.67;;;;;;;-145.69;61.43;52499.84;5092712;28;20564;-82
2024/01/12 01:54:14;;;;;;;24.93;9.63;;;;;;;-145.69;60.88;52452.31;5092740;28;20205;-81
2024/01/12 01:56:42;;;;;;;30.03;11.87;;;;;;;-145.69;61.49;52424.59;5092831;28;20548;-81
2024/01/12 01:59:08;;;;;;;34.17;12.27;;;;;;;-145.69;61.29;52444.38;5092302;28;20230;-81
2024/01/12 02:01:35;;;;;;;31.40;11.60;;;;;;;-145.69;61.36;52448.34;5091208;28;20263;-80
2024/01/12 02:04:03;;;;;;;23.67;9.97;;;;;;;-145.69;61.94;52430.53;5092362;28;20198;-81
2024/01/12 02:06:30;;;;;;;27.27;10.63;;;;;;;-145.69;61.42;52428.53;5092505;28;20232;-81
2024/01/12 02:08:57;;;;;;;35.97;12.70;;;;;;;-145.69;61.47;52450.31;5093905;28;20725;-81
2024/01/12 02:11:24;;;;;;;33.53;12.30;;;;;;;-145.69;61.54;52428.53;5095950;28;20194;-81
2024/01/12 02:13:50;;;;;;;38.27;11.97;;;;;;;-145.69;61.60;52466.16;5095936;28;20202;-81
2024/01/12 02:16:18;;;;;;;33.17;12.30;;;;;;;-145.69;60.84;52484.00;5096103;28;20209;-81
2024/01/12 02:18:44;;;;;;;35.10;12.17;;;;;;;-145.69;61.71;52454.28;5095850;28;20251;-81
2024/01/12 02:21:12;;;;;;;25.83;10.50;;;;;;;-145.69;61.58;52412.69;5095963;28;20205;-81
2024/01/12 02:23:38;;;;;;;26.57;10.97;;;;;;;-145.69;61.17;52444.38;5095904;28;20198;-81
2024/01/12 02:26:05;;;;;;;30.97;11.57;;;;;;;-145.69;61.08;52438.44;5095783;28;20213;-81
2024/01/12 02:28:32;;;;;;;31.67;10.47;;;;;;;-145.69;61.46;52432.50;5095091;28;20224;-81
2024/01/12 02:31:00;;;;;;;26.40;10.47;;;;;;;-145.69;61.14;52456.28;5095519;28;20194;-81
2024/01/12 02:33:26;;;;;;;26.83;10.33;;;;;;;-145.69;60.94;52430.53;5095657;28;20194;-81
2024/01/12 02:35:53;;;;;;;27.93;11.03;;;;;;;-145.69;61.22;52440.44;5095641;28;20202;-81
2024/01/12 02:38:21;;;;;;;31.00;10.47;;;;;;;-145.69;60.76;52434.47;5095781;28;20252;-82
2024/01/12 02:40:47;;;;;;;22.87;9.00;;;;;;;-145.69;61.11;52484.00;5095410;28;20198;-82
2024/01/12 02:43:14;;;;;;;22.63;8.77;;;;;;;-145.69;61.29;52474.09;5095540;28;20198;-81
2024/01/12 02:45:40;;;;;;;23.33;9.03;;;;;;;-145.69;60.74;52440.44;5094761;28;20201;-82
2024/01/12 02:48:07;;;;;;;30.17;10.47;;;;;;;-145.69;60.99;52476.06;5095375;28;20206;-81
2024/01/12 02:50:34;;;;;;;29.30;9.53;;;;;;;-145.69;61.42;52424.59;5095318;28;20202;-81
2024/01/12 02:53:00;;;;;;;30.67;9.83;;;;;;;-145.69;60.89;52420.63;5095284;28;20202;-81
2024/01/12 02:55:31;;;;;;;23.77;9.17;;;;;;;-145.69;61.39;52466.16;5094380;28;20196;-81
2024/01/12 02:57:57;;;;;;;25.73;10.33;;;;;;;-145.69;60.86;52440.44;5091433;28;20190;-81
2024/01/12 03:00:24;;;;;;;27.33;10.03;;;;;;;-145.69;61.77;52458.25;5094576;28;20234;-81
2024/01/12 03:02:52;;;;;;;22.43;9.20;;;;;;;-145.69;61.57;52428.53;5094546;28;20625;-81
2024/01/12 03:05:18;;;;;;;27.70;9.13;;;;;;;-145.69;62.09;52446.38;5094731;28;20660;-81
2024/01/12 03:07:45;;;;;;;22.73;8.57;;;;;;;-145.69;61.57;52460.22;5095115;28;20327;-81
2024/01/12 03:10:11;;;;;;;20.67;8.43;;;;;;;-145.69;61.53;52458.25;5095264;28;20234;-81
2024/01/12 03:12:39;;;;;;;19.80;8.07;;;;;;;-145.69;61.15;52434.47;5094851;28;20198;-82
2024/01/12 03:15:06;;;;;;;14.63;6.20;;;;;;;-145.69;61.32;52420.63;5094895;28;20238;-81
2024/01/12 03:17:33;;;;;;;20.83;7.33;;;;;;;-145.69;61.02;52440.44;5094915;28;20199;-81
2024/01/12 03:19:59;;;;;;;18.07;6.83;;;;;;;-145.69;60.96;52410.72;5094623;28;20199;-81
2024/01/12 03:22:26;;;;;;;19.87;8.13;;;;;;;-145.69;61.06;52456.28;5087804;28;20205;-81
2024/01/12 03:24:52;;;;;;;11.67;4.87;;;;;;;-145.69;60.83;52442.41;5074580;28;20206;-81
2024/01/12 03:27:19;;;;;;;12.60;4.60;;;;;;;-145.69;61.13;52464.19;5090085;28;20230;-81
2024/01/12 03:29:47;;;;;;;10.00;4.73;;;;;;;-145.69;60.97;52472.13;5094261;28;20197;-81
2024/01/12 03:32:13;;;;;;;9.90;4.87;;;;;;;-145.69;61.38;52440.44;5094508;28;20206;-82
2024/01/12 03:34:40;;;;;;;13.73;5.67;;;;;;;-145.69;61.19;52460.22;5094368;28;20202;-81
2024/01/12 03:37:06;;;;;;;13.77;6.10;;;;;;;-145.69;61.01;52424.59;5094510;28;20281;-82
2024/01/12 03:39:33;;;;;;;13.33;5.00;;;;;;;-145.69;61.74;52480.03;5094308;28;20194;-81
2024/01/12 03:41:59;;;;;;;12.00;5.30;;;;;;;-145.69;60.47;52464.19;5094289;28;20194;-81
2024/01/12 03:44:26;;;;;;;14.77;6.47;;;;;;;-145.69;61.03;52448.34;5093696;28;20203;-82
2024/01/12 03:46:53;;;;;;;11.23;5.37;;;;;;;-145.69;61.51;52468.16;5093774;28;20225;-82
2024/01/12 03:49:21;;;;;;;11.67;5.50;;;;;;;-145.69;61.51;52466.16;5094335;28;20645;-81
2024/01/12 03:51:53;;;;;;;14.20;5.57;;;;;;;-145.69;61.55;52456.28;5094310;28;20198;-81
2024/01/12 03:54:20;;;;;;;18.73;5.40;;;;;;;-145.69;61.08;52444.38;5094290;28;20194;-81
2024/01/12 03:56:46;;;;;;;15.63;4.77;;;;;;;-145.69;60.96;52456.28;5093733;28;20209;-82
2024/01/12 03:59:13;;;;;;;12.40;5.00;;;;;;;-145.69;61.48;52450.31;5093720;28;20241;-81
2024/01/12 04:01:43;;;;;;;10.20;4.27;;;;;;;-145.69;61.49;52470.13;5093854;28;20202;-81
2024/01/12 04:04:11;;;;;;;11.30;4.37;;;;;;;-145.69;61.65;52434.47;5093978;28;20679;-81
2024/01/12 04:06:37;;;;;;;12.87;5.70;;;;;;;-145.69;61.97;52456.28;5093610;28;20553;-81
2024/01/12 04:09:04;;;;;;;15.73;6.47;;;;;;;-145.69;61.75;52519.63;5093868;28;20209;-81
2024/01/12 04:11:30;;;;;;;13.67;5.97;;;;;;;-145.69;61.56;52454.28;5093866;28;20198;-81
2024/01/12 04:13:57;;;;;;;17.13;6.30;;;;;;;-145.69;61.74;52444.38;5093429;28;20202;-81
2024/01/12 04:16:23;;;;;;;16.20;5.47;;;;;;;-145.69;61.17;52436.47;5093700;28;20194;-81
2024/01/12 04:18:50;;;;;;;13.90;5.13;;;;;;;-145.69;61.26;52428.53;5093529;28;20202;-81
2024/01/12 04:21:17;;;;;;;12.23;5.00;;;;;;;-145.69;61.98;52466.16;5093360;28;20307;-82
2024/01/12 04:23:43;;;;;;;11.43;5.20;;;;;;;-145.69;61.28;52446.38;5093805;28;20661;-82
2024/01/12 04:26:10;;;;;;;11.87;4.87;;;;;;;-145.69;61.60;52448.34;5093377;28;20656;-82
2024/01/12 04:28:36;;;;;;;11.13;5.63;;;;;;;-145.69;61.20;52450.31;5093362;28;20202;-81
2024/01/12 04:31:04;;;;;;;13.03;6.23;;;;;;;-145.69;61.87;52468.16;5092943;28;20289;-81
2024/01/12 04:33:31;;;;;;;12.33;5.40;;;;;;;-145.69;61.36;52424.59;5093241;28;20608;-81
2024/01/12 04:35:57;;;;;;;12.37;4.60;;;;;;;-145.69;60.94;52444.38;5093444;28;20198;-81
2024/01/12 04:38:26;;;;;;;9.60;4.00;;;;;;;-145.69;61.69;52444.38;5093251;28;20201;-81
2024/01/12 04:40:53;;;;;;;16.13;5.67;;;;;;;-145.69;61.57;52460.22;5093511;28;20198;-81
2024/01/12 04:43:20;;;;;;;11.40;4.83;;;;;;;-145.69;61.26;52450.31;5092982;28;20201;-81
2024/01/12 04:45:47;;;;;;;9.33;4.50;;;;;;;-145.69;61.52;52448.34;5093369;28;20193;-81
2024/01/12 04:48:13;;;;;;;9.80;4.53;;;;;;;-145.69;61.71;52452.31;5093049;28;20233;-81
2024/01/12 04:50:40;;;;;;;10.43;5.20;;;;;;;-145.69;61.63;52420.63;5093256;28;20556;-81
2024/01/12 04:53:06;;;;;;;11.43;4.57;;;;;;;-145.69;61.72;52458.25;5093104;28;20644;-81
2024/01/12 04:55:34;;;;;;;8.87;4.37;;;;;;;-145.69;61.86;52470.13;5093111;28;20537;-81
2024/01/12 04:58:03;;;;;;;9.60;4.10;;;;;;;-145.69;60.77;52438.44;5092709;28;20205;-82
2024/01/12 05:00:30;;;;;;;16.80;5.73;;;;;;;-145.69;62.77;52464.19;5092969;28;20194;-81
2024/01/12 05:02:56;;;;;;;15.43;5.77;;;;;;;-145.69;61.74;52426.56;5093145;28;20639;-82
2024/01/12 05:05:23;;;;;;;10.77;5.53;;;;;;;-145.69;61.35;52499.84;5093264;28;20206;-81
2024/01/12 05:07:49;;;;;;;16.13;5.73;;;;;;;-145.69;61.59;52480.03;5092666;28;20253;-82
2024/01/12 05:10:16;;;;;;;14.40;5.43;;;;;;;-145.69;61.20;52438.44;5093036;28;20210;-81
2024/01/12 05:12:44;;;;;;;20.10;6.07;;;;;;;-145.69;61.60;52450.31;5092936;28;20727;-82
2024/01/12 05:15:11;;;;;;;23.43;7.23;;;;;;;-145.69;61.49;52458.25;5092928;28;20198;-82
2024/01/12 05:17:37;;;;;;;12.63;6.20;;;;;;;-145.69;61.36;52440.44;5093198;28;20201;-82
2024/01/12 05:20:06;;;;;;;13.20;6.30;;;;;;;-145.69;62.23;52450.31;5093091;28;20709;-82
2024/01/12 05:22:35;;;;;;;16.60;6.50;;;;;;;-145.69;62.49;52470.13;5078962;28;20259;-82
2024/01/12 05:25:02;;;;;;;14.80;6.20;;;;;;;-145.69;61.72;52458.25;5072717;28;20203;-82
2024/01/12 05:27:29;;;;;;;13.03;5.53;;;;;;;-145.69;61.77;52450.31;5074810;28;20578;-82
2024/01/12 05:29:57;;;;;;;13.93;5.93;;;;;;;-145.69;62.29;52458.25;5092548;28;20194;-82
2024/01/12 05:32:23;;;;;;;13.43;5.17;;;;;;;-145.69;61.87;52464.19;5092766;28;20293;-82
2024/01/12 05:34:50;;;;;;;12.57;5.07;;;;;;;-145.69;62.16;52424.59;5092790;28;20209;-82
2024/01/12 05:37:16;;;;;;;21.57;6.20;;;;;;;-145.69;61.87;52434.47;5092831;28;20206;-81
2024/01/12 05:39:43;;;;;;;10.60;4.83;;;;;;;-145.69;62.01;52458.25;5092755;28;20217;-82
2024/01/12 05:42:10;;;;;;;10.27;4.83;;;;;;;-145.69;61.33;52450.31;5092584;28;20596;-81
2024/01/12 05:44:36;;;;;;;12.17;4.93;;;;;;;-145.69;61.65;52466.16;5095418;28;20664;-81
2024/01/12 05:47:04;;;;;;;17.90;6.93;;;;;;;-145.69;62.37;52446.38;5095741;28;20467;-82
2024/01/12 05:49:31;;;;;;;14.53;5.57;;;;;;;-145.69;61.29;52452.31;5096554;28;20732;-81
2024/01/12 05:51:57;;;;;;;12.77;5.47;;;;;;;-145.69;62.20;52440.44;5096396;28;20190;-82
2024/01/12 05:54:24;;;;;;;12.93;5.23;;;;;;;-145.69;61.95;52448.34;5096334;28;20553;-81
2024/01/12 05:56:51;;;;;;;14.83;5.33;;;;;;;-145.69;61.76;52464.19;5096594;28;20198;-81
2024/01/12 05:59:17;;;;;;;12.67;5.33;;;;;;;-145.69;61.76;52468.16;5095883;28;20297;-81
2024/01/12 06:01:44;;;;;;;15.47;5.10;;;;;;;-145.69;61.27;52444.38;5096116;28;20206;-81
2024/01/12 06:04:12;;;;;;;10.93;4.90;;;;;;;-145.69;61.69;52472.13;5096137;28;20251;-82
2024/01/12 06:06:41;;;;;;;12.73;4.63;;;;;;;-145.69;62.09;52468.16;5095891;28;20285;-81
2024/01/12 06:09:08;;;;;;;9.23;4.47;;;;;;;-145.69;62.07;52484.00;5096282;28;20259;-82
2024/01/12 06:11:35;;;;;;;11.30;4.80;;;;;;;-145.69;61.51;52448.34;5096240;28;20293;-81
2024/01/12 06:14:02;;;;;;;15.57;4.80;;;;;;;-145.69;61.74;52480.03;5095848;28;20201;-81
2024/01/12 06:16:29;;;;;;;12.90;5.20;;;;;;;-145.69;62.51;52430.53;5095841;28;20244;-81
2024/01/12 06:18:55;;;;;;;12.40;4.80;;;;;;;-145.69;62.03;52424.59;5095999;28;20202;-81
2024/01/12 06:21:23;;;;;;;16.70;5.27;;;;;;;-145.69;61.46;52460.22;5096279;28;20204;-81
2024/01/12 06:23:50;;;;;;;12.70;5.37;;;;;;;-145.69;61.71;52456.28;5096042;28;20202;-81
2024/01/12 06:26:16;;;;;;;11.10;4.93;;;;;;;-145.69;61.32;52432.50;5095618;28;20671;-81
2024/01/12 06:28:43;;;;;;;13.37;5.90;;;;;;;-145.69;62.19;52454.28;5095256;28;20690;-81
2024/01/12 06:31:09;;;;;;;15.80;6.77;;;;;;;-145.69;62.20;52470.13;5096258;28;20205;-82
2024/01/12 06:33:36;;;;;;;15.80;6.60;;;;;;;-145.69;62.06;52448.34;5095821;28;20205;-81
2024/01/12 06:36:02;;;;;;;14.70;5.93;;;;;;;-145.69;61.79;52434.47;5095655;28;20206;-82
2024/01/12 06:38:30;;;;;;;12.87;5.63;;;;;;;-145.69;61.99;52402.78;5095834;28;20247;-82
2024/01/12 06:40:57;;;;;;;14.17;5.37;;;;;;;-145.69;61.66;52432.50;5095770;28;20243;-81
2024/01/12 06:43:23;;;;;;;12.27;4.93;;;;;;;-145.69;61.14;52489.94;5095340;28;20684;-81
2024/01/12 06:45:50;;;;;;;11.13;5.13;;;;;;;-145.69;61.10;52412.69;5095086;28;20202;-82
2024/01/12 06:48:16;;;;;;;12.07;5.37;;;;;;;-145.69;61.51;52495.88;5095286;28;20698;-81
2024/01/12 06:50:43;;;;;;;12.40;5.30;;;;;;;-145.69;61.21;52432.50;5095626;28;20198;-81
2024/01/12 06:53:10;;;;;;;18.57;6.33;;;;;;;-145.69;61.15;52444.38;5095256;28;20252;-82
2024/01/12 06:55:38;;;;;;;13.80;4.90;;;;;;;-145.69;61.24;52444.38;5095027;28;20204;-81
2024/01/12 06:58:04;;;;;;;16.90;5.30;;;;;;;-145.69;60.68;52426.56;5094919;28;20205;-82
2024/01/12 07:00:31;;;;;;;21.03;5.67;;;;;;;-145.69;61.11;52436.47;5095140;28;20277;-82
2024/01/12 07:02:58;;;;;;;18.30;6.10;;;;;;;-145.69;61.54;52428.53;5095255;28;20198;-81
2024/01/12 07:05:25;;;;;;;18.20;5.80;;;;;;;-145.69;61.64;52485.97;5095180;28;20560;-82
2024/01/12 07:07:51;;;;;;;12.43;5.23;;;;;;;-145.69;62.29;52452.31;5094514;28;20220;-82
2024/01/12 07:10:18;;;;;;;13.13;4.83;;;;;;;-145.69;61.68;52450.31;5095310;28;20209;-81
2024/01/12 07:12:47;;;;;;;11.77;5.37;;;;;;;-145.69;61.35;52460.22;5094871;28;20696;-82
2024/01/12 07:15:14;;;;;;;15.77;5.67;;;;;;;-145.69;60.99;52440.44;5094100;28;20247;-82
2024/01/12 07:17:41;;;;;;;13.43;5.73;;;;;;;-145.69;60.96;52440.44;5094901;28;20200;-81
2024/01/12 07:20:10;;;;;;;14.60;5.30;;;;;;;-145.69;61.31;52476.06;5089434;28;20278;-81
2024/01/12 07:22:36;;;;;;;13.77;5.50;;;;;;;-145.69;61.11;52438.44;5074493;28;20207;-81
2024/01/12 07:25:03;;;;;;;15.57;4.90;;;;;;;-145.69;61.66;52480.03;5094120;28;20252;-81
2024/01/12 07:27:30;;;;;;;12.50;5.30;;;;;;;-145.69;61.52;52436.47;5094696;28;20305;-81
2024/01/12 07:29:58;;;;;;;15.67;5.77;;;;;;;-145.69;61.93;52436.47;5094699;28;20202;-81
2024/01/12 07:32:24;;;;;;;13.27;4.87;;;;;;;-145.69;61.79;52412.69;5094276;28;20263;-82
2024/01/12 07:34:51;;;;;;;13.27;5.10;;;;;;;-145.69;61.35;52460.22;5094613;28;20202;-82
2024/01/12 07:37:18;;;;;;;14.00;5.10;;;;;;;-145.69;61.93;52456.28;5094661;28;20202;-82
2024/01/12 07:39:44;;;;;;;14.67;5.43;;;;;;;-145.69;61.65;52468.16;5094422;28;20209;-81
2024/01/12 07:42:11;;;;;;;12.37;5.70;;;;;;;-145.69;61.60;52446.38;5094309;28;20213;-82
2024/01/12 07:44:38;;;;;;;15.47;6.13;;;;;;;-145.69;61.34;52468.16;5094252;28;20217;-82
2024/01/12 07:47:06;;;;;;;15.50;5.93;;;;;;;-145.69;62.20;52440.44;5093912;28;20193;-82
2024/01/12 07:49:33;;;;;;;12.83;4.90;;;;;;;-145.69;61.94;52440.44;5094304;28;20229;-82
2024/01/12 07:51:59;;;;;;;12.63;4.70;;;;;;;-145.69;61.57;52462.22;5094289;28;20210;-82
2024/01/12 07:54:26;;;;;;;14.20;5.57;;;;;;;-145.69;62.32;52460.22;5093803;28;20525;-81
2024/01/12 07:56:52;;;;;;;12.13;5.33;;;;;;;-145.69;61.80;52454.28;5093979;28;20198;-82
2024/01/12 07:59:19;;;;;;;14.27;5.10;;;;;;;-145.69;61.31;52444.38;5093743;28;20234;-81
2024/01/12 08:01:45;;;;;;;12.93;4.83;;;;;;;-145.69;61.92;52432.50;5093530;28;20683;-81
2024/01/12 08:04:13;;;;;;;10.90;4.70;;;;;;;-145.69;61.95;52442.41;5093849;28;20686;-81
2024/01/12 08:06:40;;;;;;;9.40;4.57;;;;;;;-145.69;61.83;52460.22;5093175;28;20202;-82
2024/01/12 08:09:06;;;;;;;16.30;5.47;;;;;;;-145.69;61.80;52454.28;5093780;28;20230;-82
2024/01/12 08:11:33;;;;;;;11.27;4.97;;;;;;;-145.69;61.74;52446.38;5093797;28;20549;-82
2024/01/12 08:13:59;;;;;;;11.20;4.80;;;;;;;-145.69;61.46;52440.44;5093888;28;20205;-82
2024/01/12 08:16:27;;;;;;;9.97;4.63;;;;;;;-145.69;62.21;52462.22;5093643;28;20202;-82
2024/01/12 08:18:54;;;;;;;11.57;4.57;;;;;;;-145.69;62.12;52420.63;5093902;28;20292;-82
2024/01/12 08:21:21;;;;;;;12.13;4.57;;;;;;;-145.69;61.80;52450.31;5093493;28;20205;-82
2024/01/12 08:23:48;;;;;;;10.13;4.40;;;;;;;-145.69;61.67;52434.47;5093185;28;20194;-82
2024/01/12 08:26:15;;;;;;;9.80;4.43;;;;;;;-145.69;62.11;52420.63;5093469;28;20279;-82
2024/01/12 08:28:41;;;;;;;10.10;4.30;;;;;;;-145.69;61.74;52460.22;5093557;28;20225;-82
2024/01/12 08:31:08;;;;;;;14.40;5.30;;;;;;;-145.69;62.26;52428.53;5093242;28;20297;-82
2024/01/12 08:33:34;;;;;;;12.47;5.20;;;;;;;-145.69;61.54;52436.47;5092951;28;20217;-81
2024/01/12 08:36:00;;;;;;;13.20;5.13;;;;;;;-145.69;61.94;52436.47;5093191;28;20224;-82
2024/01/12 08:38:28;;;;;;;14.90;5.53;;;;;;;-145.69;61.49;52474.09;5093365;28;20198;-82
2024/01/12 08:40:55;;;;;;;10.07;4.70;;;;;;;-145.69;61.68;52454.28;5093293;28;20194;-82
2024/01/12 08:43:21;;;;;;;11.07;4.77;;;;;;;-145.69;61.98;52430.53;5093626;28;20658;-82
2024/01/12 08:45:48;;;;;;;12.13;4.53;;;;;;;-145.69;61.89;52456.28;5093190;28;20208;-82
2024/01/12 08:48:15;;;;;;;12.77;5.03;;;;;;;-145.69;61.67;52424.59;5092962;28;20222;-82
2024/01/12 08:50:41;;;;;;;10.63;4.47;;;;;;;-145.69;61.89;52428.53;5093376;28;20653;-82
2024/01/12 08:53:09;;;;;;;9.77;4.47;;;;;;;-145.69;61.94;52438.44;5093080;28;20560;-81
2024/01/12 08:55:37;;;;;;;10.67;4.43;;;;;;;-145.69;61.39;52456.28;5073136;28;20199;-82
2024/01/12 08:58:03;;;;;;;9.93;4.80;;;;;;;-145.69;62.07;52454.28;5072836;28;20230;-81
2024/01/12 09:00:30;;;;;;;11.20;4.63;;;;;;;-145.69;62.11;52446.38;5072967;28;20205;-81
2024/01/12 09:02:57;;;;;;;8.90;4.60;;;;;;;-145.69;62.17;52446.38;5087577;28;20733;-81
2024/01/12 09:05:23;;;;;;;11.70;4.67;;;;;;;-145.69;62.17;52452.31;5092787;28;20205;-81
2024/01/12 09:07:49;;;;;;;7.60;4.10;;;;;;;-145.69;62.24;52422.59;5092510;28;20205;-82
2024/01/12 09:10:16;;;;;;;11.50;4.43;;;;;;;-145.69;62.58;52404.78;5093196;28;20220;-82
2024/01/12 09:12:44;;;;;;;10.03;4.83;;;;;;;-145.69;62.37;52400.81;5093013;28;20209;-82
2024/01/12 09:15:11;;;;;;;10.10;4.13;;;;;;;-145.69;62.57;52436.47;5092627;28;20201;-81
2024/01/12 09:17:37;;;;;;;9.93;4.43;;;;;;;-145.69;62.47;52436.47;5093919;28;20205;-81
2024/01/12 09:20:05;;;;;;;11.63;4.90;;;;;;;-145.69;62.73;52432.50;5096422;28;20206;-80
2024/01/12 09:22:32;;;;;;;12.60;5.40;;;;;;;-145.69;62.88;52444.38;5096086;28;20309;-82
2024/01/12 09:24:58;;;;;;;14.50;5.40;;;;;;;-145.69;62.81;52434.47;5096654;28;20190;-81
2024/01/12 09:27:25;;;;;;;10.83;5.40;;;;;;;-145.69;62.14;52381.00;5096489;28;20194;-82
2024/01/12 09:29:53;;;;;;;12.97;5.27;;;;;;;-145.69;62.34;52434.47;5095843;28;20218;-82
2024/01/12 09:32:19;;;;;;;11.67;5.30;;;;;;;-145.69;62.86;52428.53;5096504;28;20239;-81
2024/01/12 09:34:46;;;;;;;11.90;5.43;;;;;;;-145.69;62.69;52396.84;5097092;28;20224;-82
2024/01/12 09:37:12;;;;;;;15.00;6.83;;;;;;;-145.69;62.73;52434.47;5097729;28;20212;-82
2024/01/12 09:39:39;;;;;;;19.83;7.67;;;;;;;-145.69;62.83;52422.59;5097630;28;20205;-84
2024/01/12 09:42:09;;;;;;;16.00;7.50;;;;;;;-145.69;62.71;52408.75;5099007;28;20209;-82
2024/01/12 09:44:38;;;;;;;17.97;7.70;;;;;;;-145.69;62.87;52422.59;5100684;28;20198;-81
2024/01/12 09:47:06;;;;;;;21.63;7.67;;;;;;;-145.69;62.59;52418.63;5103131;28;20266;-81
2024/01/12 09:49:33;;;;;;;18.67;7.03;;;;;;;-145.69;63.04;52428.53;5104915;28;20279;-81
2024/01/12 09:52:03;;;;;;;14.00;7.00;;;;;;;-145.69;63.01;52416.66;5104750;28;20208;-81
2024/01/12 09:54:29;;;;;;;17.57;6.70;;;;;;;-145.69;63.21;52440.44;5105850;28;20198;-82
2024/01/12 09:56:57;;;;;;;15.63;6.43;;;;;;;-145.69;63.13;52448.34;5094559;28;20213;-81
2024/01/12 09:59:24;;;;;;;12.70;6.07;;;;;;;-145.69;62.93;52428.53;5096731;28;20711;-82
2024/01/12 10:01:52;;;;;;;13.93;5.63;;;;;;;-145.69;63.12;52424.59;5103265;28;20202;-81
2024/01/12 10:04:20;;;;;;;11.93;5.53;;;;;;;-145.69;63.12;52418.63;5101462;28;20198;-81
2024/01/12 10:06:46;;;;;;;14.30;6.07;;;;;;;-145.69;62.92;52426.56;5102638;28;20210;-80
2024/01/12 10:09:18;;;;;;;15.57;6.30;;;;;;;-145.69;62.94;52472.13;5098947;28;20226;-81
2024/01/12 10:11:44;;;;;;;18.53;7.00;;;;;;;-145.69;63.14;52404.78;5101898;28;20213;-81
2024/01/12 10:14:25;;;;;;;21.57;7.93;;;;;;;-145.69;62.48;52428.53;5101256;28;20224;-81
2024/01/12 10:16:55;;;;;;;24.10;9.50;;;;;;;-145.69;62.34;52388.94;5102504;28;20230;-80
2024/01/12 10:19:23;;;;;;;20.63;8.87;;;;;;;-145.69;62.75;52377.06;5101121;28;20247;-81
2024/01/12 10:21:50;;;;;;;22.33;9.23;;;;;;;-145.69;62.93;52436.47;5099472;28;20198;-80
2024/01/12 10:24:18;;;;;;;19.27;9.30;;;;;;;-145.69;62.68;52448.34;5098673;28;20715;-81
2024/01/12 10:26:46;;;;;;;23.13;10.47;;;;;;;-145.69;62.25;52412.69;5097887;28;20293;-80
2024/01/12 10:29:14;;;;;;;30.43;11.27;;;;;;;-145.69;62.52;52414.69;5095322;28;20232;-80
2024/01/12 10:31:43;;;;;;;38.90;13.87;;;;;;;-145.69;61.95;52408.75;5100160;28;20222;-80
2024/01/12 10:34:12;;;;;;;35.15;15.85;;;;;;;-145.69;63.06;52448.34;5095349;28;20783;-80
2024/01/12 10:36:41;;;;;;;32.73;13.43;;;;;;;-145.69;62.26;52384.97;5095418;28;20205;-81
2024/01/12 10:39:09;;;;;;;32.53;13.73;;;;;;;-145.69;62.63;52456.28;5095792;28;20294;-81
2024/01/12 10:41:36;;;;;;;37.77;15.20;;;;;;;-145.69;62.92;52400.81;5095653;28;20198;-80
2024/01/12 10:44:05;;;;;;;35.07;14.50;;;;;;;-145.69;62.66;52402.78;5096195;28;20197;-81
2024/01/12 10:46:40;;;;;;;32.50;15.03;;;;;;;-145.69;62.74;52392.91;5097115;28;20214;-79
2024/01/12 10:49:13;;;;;;;36.50;15.37;;;;;;;-145.69;62.99;52444.38;5097141;28;20313;-81
2024/01/12 10:51:52;;;;;;;36.23;15.90;;;;;;;-145.69;62.93;52426.56;5095119;28;20194;-80
2024/01/12 10:54:21;;;;;;;40.23;17.20;;;;;;;-145.69;62.87;52428.53;5096435;28;20197;-80
2024/01/12 10:56:48;;;;;;;43.37;16.93;;;;;;;-145.69;62.76;52418.63;5094830;28;20230;-81
2024/01/12 10:59:15;;;;;;;43.43;18.33;;;;;;;-145.69;62.87;52424.59;5094873;28;20336;-80
2024/01/12 11:01:42;;;;;;;43.17;17.70;;;;;;;-145.69;63.11;52424.59;5095529;28;20213;-80
2024/01/12 11:04:10;;;;;;;43.63;18.83;;;;;;;-145.69;63.08;52446.38;5095324;28;20190;-80
2024/01/12 11:06:37;;;;;;;41.37;17.63;;;;;;;-145.69;62.88;52416.66;5094550;28;20199;-80